sensor_id;sensor_type;location;lat;lon;timestamp;pressure;altitude;pressure_sealevel;temperature;humidity
30182;BME280;16990;49.056;9.240;2022-08-25T00:02:31;98802.94;;;20.79;66.71
30182;BME280;16990;49.056;9.240;2022-08-25T00:05:18;98812.63;;;20.86;66.29
30182;BME280;16990;49.056;9.240;2022-08-25T00:08:05;98804.84;;;20.79;66.96
30182;BME280;16990;49.056;9.240;2022-08-25T00:10:54;98806.34;;;20.71;67.33
30182;BME280;16990;49.056;9.240;2022-08-25T00:13:43;98801.81;;;20.67;67.44
30182;BME280;16990;49.056;9.240;2022-08-25T00:16:31;98812.16;;;20.65;67.87
30182;BME280;16990;49.056;9.240;2022-08-25T00:19:22;98800.88;;;20.57;67.99
30182;BME280;16990;49.056;9.240;2022-08-25T00:22:09;98800.44;;;20.50;68.18
30182;BME280;16990;49.056;9.240;2022-08-25T00:24:56;98797.19;;;20.48;68.05
30182;BME280;16990;49.056;9.240;2022-08-25T00:27:44;98786.63;;;20.47;68.23
30182;BME280;16990;49.056;9.240;2022-08-25T00:30:32;98793.16;;;20.46;68.68
30182;BME280;16990;49.056;9.240;2022-08-25T00:33:19;98794.84;;;20.42;68.54
30182;BME280;16990;49.056;9.240;2022-08-25T00:36:05;98800.19;;;20.47;68.29
30182;BME280;16990;49.056;9.240;2022-08-25T00:38:53;98795.38;;;20.44;68.48
30182;BME280;16990;49.056;9.240;2022-08-25T00:41:41;98809.22;;;20.42;68.62
30182;BME280;16990;49.056;9.240;2022-08-25T00:44:30;98799.56;;;20.36;68.94
30182;BME280;16990;49.056;9.240;2022-08-25T00:47:19;98808.09;;;20.29;69.05
30182;BME280;16990;49.056;9.240;2022-08-25T00:50:08;98800.63;;;20.21;69.54
30182;BME280;16990;49.056;9.240;2022-08-25T00:52:58;98811.41;;;20.26;69.83
30182;BME280;16990;49.056;9.240;2022-08-25T00:55:46;98819.31;;;20.23;69.52
30182;BME280;16990;49.056;9.240;2022-08-25T00:58:34;98808.97;;;20.25;69.04
30182;BME280;16990;49.056;9.240;2022-08-25T01:01:23;98802.31;;;20.17;70.11
30182;BME280;16990;49.056;9.240;2022-08-25T01:04:09;98805.31;;;20.15;69.60
30182;BME280;16990;49.056;9.240;2022-08-25T01:06:57;98797.31;;;20.24;69.28
30182;BME280;16990;49.056;9.240;2022-08-25T01:09:47;98800.13;;;20.19;69.91
30182;BME280;16990;49.056;9.240;2022-08-25T01:12:36;98809.13;;;20.14;69.67
30182;BME280;16990;49.056;9.240;2022-08-25T01:15:23;98805.72;;;20.09;69.74
30182;BME280;16990;49.056;9.240;2022-08-25T01:18:11;98790.50;;;20.08;70.25
30182;BME280;16990;49.056;9.240;2022-08-25T01:21:00;98773.78;;;20.01;69.87
30182;BME280;16990;49.056;9.240;2022-08-25T01:23:48;98797.63;;;20.04;70.47
30182;BME280;16990;49.056;9.240;2022-08-25T01:26:37;98788.16;;;20.01;71.06
30182;BME280;16990;49.056;9.240;2022-08-25T01:29:24;98788.03;;;19.92;71.09
30182;BME280;16990;49.056;9.240;2022-08-25T01:32:12;98775.69;;;19.81;71.11
30182;BME280;16990;49.056;9.240;2022-08-25T01:34:59;98764.41;;;19.74;71.47
30182;BME280;16990;49.056;9.240;2022-08-25T01:37:48;98779.00;;;19.78;71.35
30182;BME280;16990;49.056;9.240;2022-08-25T01:40:36;98785.00;;;19.75;71.53
30182;BME280;16990;49.056;9.240;2022-08-25T01:43:30;98788.91;;;19.69;71.88
30182;BME280;16990;49.056;9.240;2022-08-25T01:46:21;98779.97;;;19.68;71.76
30182;BME280;16990;49.056;9.240;2022-08-25T01:49:08;98786.88;;;19.55;72.04
30182;BME280;16990;49.056;9.240;2022-08-25T01:51:59;98782.03;;;19.52;72.42
30182;BME280;16990;49.056;9.240;2022-08-25T01:54:47;98784.22;;;19.50;72.18
30182;BME280;16990;49.056;9.240;2022-08-25T01:57:34;98778.59;;;19.47;72.12
30182;BME280;16990;49.056;9.240;2022-08-25T02:00:21;98780.25;;;19.43;72.84
30182;BME280;16990;49.056;9.240;2022-08-25T02:03:09;98785.97;;;19.41;72.84
30182;BME280;16990;49.056;9.240;2022-08-25T02:05:57;98784.88;;;19.42;72.95
30182;BME280;16990;49.056;9.240;2022-08-25T02:08:44;98766.00;;;19.32;72.80
30182;BME280;16990;49.056;9.240;2022-08-25T02:11:35;98781.72;;;19.35;73.34
30182;BME280;16990;49.056;9.240;2022-08-25T02:14:23;98779.00;;;19.35;73.27
30182;BME280;16990;49.056;9.240;2022-08-25T02:17:10;98782.78;;;19.34;73.42
30182;BME280;16990;49.056;9.240;2022-08-25T02:19:57;98793.69;;;19.29;73.73
30182;BME280;16990;49.056;9.240;2022-08-25T02:22:44;98798.75;;;19.60;73.25
30182;BME280;16990;49.056;9.240;2022-08-25T02:25:31;98795.03;;;18.83;76.57
30182;BME280;16990;49.056;9.240;2022-08-25T02:28:20;98783.38;;;18.54;77.48
30182;BME280;16990;49.056;9.240;2022-08-25T02:31:07;98799.19;;;18.70;78.14
30182;BME280;16990;49.056;9.240;2022-08-25T02:34:00;98774.34;;;18.29;79.98
30182;BME280;16990;49.056;9.240;2022-08-25T02:36:48;98792.88;;;18.12;81.66
30182;BME280;16990;49.056;9.240;2022-08-25T02:39:35;98763.56;;;17.90;81.73
30182;BME280;16990;49.056;9.240;2022-08-25T02:42:22;98791.91;;;17.97;82.74
30182;BME280;16990;49.056;9.240;2022-08-25T02:45:11;98782.53;;;17.79;83.69
30182;BME280;16990;49.056;9.240;2022-08-25T02:47:58;98779.56;;;17.76;83.85
30182;BME280;16990;49.056;9.240;2022-08-25T02:50:45;98776.47;;;17.98;83.89
30182;BME280;16990;49.056;9.240;2022-08-25T02:53:36;98769.06;;;17.74;83.85
30182;BME280;16990;49.056;9.240;2022-08-25T02:56:24;98764.16;;;17.76;84.68
30182;BME280;16990;49.056;9.240;2022-08-25T02:59:11;98778.88;;;18.04;83.81
30182;BME280;16990;49.056;9.240;2022-08-25T03:01:59;98745.50;;;17.75;83.21
30182;BME280;16990;49.056;9.240;2022-08-25T03:04:46;98768.94;;;17.95;83.76
30182;BME280;16990;49.056;9.240;2022-08-25T03:07:33;98766.88;;;17.81;84.13
30182;BME280;16990;49.056;9.240;2022-08-25T03:10:20;98770.66;;;17.80;84.94
30182;BME280;16990;49.056;9.240;2022-08-25T03:13:07;98772.78;;;17.89;84.50
30182;BME280;16990;49.056;9.240;2022-08-25T03:15:54;98773.72;;;18.08;82.91
30182;BME280;16990;49.056;9.240;2022-08-25T03:18:42;98758.88;;;18.00;82.94
30182;BME280;16990;49.056;9.240;2022-08-25T03:21:29;98779.06;;;18.18;82.61
30182;BME280;16990;49.056;9.240;2022-08-25T03:24:17;98772.63;;;18.09;83.07
30182;BME280;16990;49.056;9.240;2022-08-25T03:27:04;98776.78;;;17.96;84.00
30182;BME280;16990;49.056;9.240;2022-08-25T03:29:50;98773.81;;;17.93;83.41
30182;BME280;16990;49.056;9.240;2022-08-25T03:32:37;98771.44;;;17.81;84.44
30182;BME280;16990;49.056;9.240;2022-08-25T03:35:25;98781.94;;;17.93;83.97
30182;BME280;16990;49.056;9.240;2022-08-25T03:38:12;98769.25;;;17.88;84.32
30182;BME280;16990;49.056;9.240;2022-08-25T03:41:01;98781.94;;;17.93;84.02
30182;BME280;16990;49.056;9.240;2022-08-25T03:43:49;98784.09;;;17.96;83.65
30182;BME280;16990;49.056;9.240;2022-08-25T03:46:38;98788.13;;;17.98;83.87
30182;BME280;16990;49.056;9.240;2022-08-25T03:49:25;98782.94;;;18.02;83.63
30182;BME280;16990;49.056;9.240;2022-08-25T03:52:13;98781.34;;;18.01;84.42
30182;BME280;16990;49.056;9.240;2022-08-25T03:55:02;98782.63;;;18.09;83.75
30182;BME280;16990;49.056;9.240;2022-08-25T03:57:50;98776.69;;;18.06;83.07
30182;BME280;16990;49.056;9.240;2022-08-25T04:00:37;98779.72;;;18.00;82.37
30182;BME280;16990;49.056;9.240;2022-08-25T04:03:24;98766.84;;;17.87;82.53
30182;BME280;16990;49.056;9.240;2022-08-25T04:06:12;98768.41;;;17.93;82.50
30182;BME280;16990;49.056;9.240;2022-08-25T04:09:00;98773.28;;;17.96;81.92
30182;BME280;16990;49.056;9.240;2022-08-25T04:11:47;98767.03;;;17.95;82.33
30182;BME280;16990;49.056;9.240;2022-08-25T04:14:34;98764.97;;;17.82;82.21
30182;BME280;16990;49.056;9.240;2022-08-25T04:17:22;98761.97;;;17.78;82.83
30182;BME280;16990;49.056;9.240;2022-08-25T04:20:10;98771.78;;;17.64;83.08
30182;BME280;16990;49.056;9.240;2022-08-25T04:22:57;98762.97;;;17.48;83.80
30182;BME280;16990;49.056;9.240;2022-08-25T04:25:47;98766.19;;;17.50;84.12
30182;BME280;16990;49.056;9.240;2022-08-25T04:28:34;98762.41;;;17.51;84.01
30182;BME280;16990;49.056;9.240;2022-08-25T04:31:21;98762.66;;;17.50;83.93
30182;BME280;16990;49.056;9.240;2022-08-25T04:34:08;98765.38;;;17.50;83.84
30182;BME280;16990;49.056;9.240;2022-08-25T04:36:54;98750.53;;;17.47;83.53
30182;BME280;16990;49.056;9.240;2022-08-25T04:39:41;98774.03;;;17.52;83.79
30182;BME280;16990;49.056;9.240;2022-08-25T04:42:30;98769.72;;;17.51;83.80
30182;BME280;16990;49.056;9.240;2022-08-25T04:45:17;98765.94;;;17.47;84.15
30182;BME280;16990;49.056;9.240;2022-08-25T04:48:04;98768.09;;;17.44;84.51
30182;BME280;16990;49.056;9.240;2022-08-25T04:50:51;98767.88;;;17.41;84.33
30182;BME280;16990;49.056;9.240;2022-08-25T04:53:38;98765.13;;;17.46;84.08
30182;BME280;16990;49.056;9.240;2022-08-25T04:56:27;98774.56;;;17.54;84.13
30182;BME280;16990;49.056;9.240;2022-08-25T04:59:16;98760.50;;;17.52;84.64
30182;BME280;16990;49.056;9.240;2022-08-25T05:02:04;98781.00;;;17.63;84.43
30182;BME280;16990;49.056;9.240;2022-08-25T05:04:53;98773.97;;;17.62;84.60
30182;BME280;16990;49.056;9.240;2022-08-25T05:07:40;98786.91;;;17.70;85.05
30182;BME280;16990;49.056;9.240;2022-08-25T05:10:27;98784.78;;;17.62;85.35
30182;BME280;16990;49.056;9.240;2022-08-25T05:13:14;98784.28;;;17.55;84.61
30182;BME280;16990;49.056;9.240;2022-08-25T05:16:03;98776.47;;;17.53;84.89
30182;BME280;16990;49.056;9.240;2022-08-25T05:18:50;98769.22;;;17.43;84.84
30182;BME280;16990;49.056;9.240;2022-08-25T05:21:37;98767.59;;;17.37;86.16
30182;BME280;16990;49.056;9.240;2022-08-25T05:24:25;98785.38;;;17.54;85.31
30182;BME280;16990;49.056;9.240;2022-08-25T05:27:14;98780.53;;;17.51;85.93
30182;BME280;16990;49.056;9.240;2022-08-25T05:30:00;98774.59;;;17.49;86.10
30182;BME280;16990;49.056;9.240;2022-08-25T05:32:49;98770.78;;;17.50;85.85
30182;BME280;16990;49.056;9.240;2022-08-25T05:35:36;98755.91;;;17.52;86.44
30182;BME280;16990;49.056;9.240;2022-08-25T05:38:23;98761.97;;;17.78;85.51
30182;BME280;16990;49.056;9.240;2022-08-25T05:41:12;98773.88;;;17.82;85.03
30182;BME280;16990;49.056;9.240;2022-08-25T05:44:00;98769.06;;;17.74;86.23
30182;BME280;16990;49.056;9.240;2022-08-25T05:46:48;98765.25;;;17.80;85.54
30182;BME280;16990;49.056;9.240;2022-08-25T05:49:37;98751.16;;;17.78;85.70
30182;BME280;16990;49.056;9.240;2022-08-25T05:54:51;98761.31;;;18.02;85.78
30182;BME280;16990;49.056;9.240;2022-08-25T05:57:38;98756.38;;;18.09;85.13
30182;BME280;16990;49.056;9.240;2022-08-25T06:00:25;98757.41;;;18.18;84.84
30182;BME280;16990;49.056;9.240;2022-08-25T06:03:12;98756.81;;;18.21;85.44
30182;BME280;16990;49.056;9.240;2022-08-25T06:06:05;98752.44;;;18.31;85.07
30182;BME280;16990;49.056;9.240;2022-08-25T06:08:52;98749.97;;;18.34;84.83
30182;BME280;16990;49.056;9.240;2022-08-25T06:11:39;98740.66;;;18.45;84.74
30182;BME280;16990;49.056;9.240;2022-08-25T06:14:27;98750.03;;;18.53;84.75
30182;BME280;16990;49.056;9.240;2022-08-25T06:17:14;98744.03;;;18.61;84.31
30182;BME280;16990;49.056;9.240;2022-08-25T06:20:02;98743.38;;;18.69;84.23
30182;BME280;16990;49.056;9.240;2022-08-25T06:22:52;98745.50;;;18.78;84.39
30182;BME280;16990;49.056;9.240;2022-08-25T06:25:39;98742.63;;;18.93;83.56
30182;BME280;16990;49.056;9.240;2022-08-25T06:28:25;98754.44;;;19.02;83.46
30182;BME280;16990;49.056;9.240;2022-08-25T06:31:13;98752.13;;;19.15;82.99
30182;BME280;16990;49.056;9.240;2022-08-25T06:34:00;98744.47;;;19.22;82.76
30182;BME280;16990;49.056;9.240;2022-08-25T06:36:47;98756.94;;;19.42;82.13
30182;BME280;16990;49.056;9.240;2022-08-25T06:39:36;98753.66;;;19.45;82.94
30182;BME280;16990;49.056;9.240;2022-08-25T06:42:23;98746.78;;;19.52;81.78
30182;BME280;16990;49.056;9.240;2022-08-25T06:45:10;98747.75;;;19.62;81.96
30182;BME280;16990;49.056;9.240;2022-08-25T06:47:57;98747.03;;;19.75;81.90
30182;BME280;16990;49.056;9.240;2022-08-25T06:50:45;98738.59;;;19.95;81.13
30182;BME280;16990;49.056;9.240;2022-08-25T06:53:32;98749.84;;;20.22;80.40
30182;BME280;16990;49.056;9.240;2022-08-25T06:56:20;98749.81;;;20.40;79.63
30182;BME280;16990;49.056;9.240;2022-08-25T06:59:08;98745.75;;;20.57;78.83
30182;BME280;16990;49.056;9.240;2022-08-25T07:01:55;98756.94;;;20.69;77.85
30182;BME280;16990;49.056;9.240;2022-08-25T07:04:42;98760.88;;;20.77;78.19
30182;BME280;16990;49.056;9.240;2022-08-25T07:07:29;98753.72;;;20.81;77.31
30182;BME280;16990;49.056;9.240;2022-08-25T07:10:16;98749.81;;;21.01;76.39
30182;BME280;16990;49.056;9.240;2022-08-25T07:13:05;98754.22;;;20.97;76.54
30182;BME280;16990;49.056;9.240;2022-08-25T07:15:53;98746.59;;;20.99;76.34
30182;BME280;16990;49.056;9.240;2022-08-25T07:18:40;98737.31;;;21.14;75.96
30182;BME280;16990;49.056;9.240;2022-08-25T07:21:29;98729.47;;;21.40;75.22
30182;BME280;16990;49.056;9.240;2022-08-25T07:24:17;98734.59;;;21.55;74.28
30182;BME280;16990;49.056;9.240;2022-08-25T07:27:04;98730.50;;;21.66;74.37
30182;BME280;16990;49.056;9.240;2022-08-25T07:29:52;98730.34;;;21.85;72.56
30182;BME280;16990;49.056;9.240;2022-08-25T07:32:39;98738.47;;;21.99;72.02
30182;BME280;16990;49.056;9.240;2022-08-25T07:35:26;98733.59;;;22.10;71.33
30182;BME280;16990;49.056;9.240;2022-08-25T07:38:12;98734.22;;;22.29;70.55
30182;BME280;16990;49.056;9.240;2022-08-25T07:41:02;98733.53;;;22.46;69.69
30182;BME280;16990;49.056;9.240;2022-08-25T07:43:50;98734.38;;;22.56;69.83
30182;BME280;16990;49.056;9.240;2022-08-25T07:46:38;98728.38;;;22.76;68.73
30182;BME280;16990;49.056;9.240;2022-08-25T07:49:26;98738.59;;;23.02;67.92
30182;BME280;16990;49.056;9.240;2022-08-25T07:52:13;98722.63;;;23.26;66.18
30182;BME280;16990;49.056;9.240;2022-08-25T07:55:01;98726.63;;;23.29;65.83
30182;BME280;16990;49.056;9.240;2022-08-25T07:57:48;98722.81;;;23.47;64.85
30182;BME280;16990;49.056;9.240;2022-08-25T08:00:36;98729.91;;;23.57;64.57
30182;BME280;16990;49.056;9.240;2022-08-25T08:03:25;98733.28;;;23.71;64.10
30182;BME280;16990;49.056;9.240;2022-08-25T08:06:14;98740.22;;;23.95;62.44
30182;BME280;16990;49.056;9.240;2022-08-25T08:09:02;98741.50;;;23.97;63.01
30182;BME280;16990;49.056;9.240;2022-08-25T08:11:49;98739.22;;;24.17;61.94
30182;BME280;16990;49.056;9.240;2022-08-25T08:14:36;98731.19;;;24.20;61.89
30182;BME280;16990;49.056;9.240;2022-08-25T08:17:23;98725.53;;;24.43;61.25
30182;BME280;16990;49.056;9.240;2022-08-25T08:20:12;98728.72;;;24.45;61.16
30182;BME280;16990;49.056;9.240;2022-08-25T08:22:59;98721.94;;;24.69;60.79
30182;BME280;16990;49.056;9.240;2022-08-25T08:25:46;98719.72;;;24.92;59.29
30182;BME280;16990;49.056;9.240;2022-08-25T08:28:33;98719.44;;;25.23;57.27
30182;BME280;16990;49.056;9.240;2022-08-25T08:31:21;98713.84;;;25.40;55.93
30182;BME280;16990;49.056;9.240;2022-08-25T08:34:11;98714.34;;;25.63;54.90
30182;BME280;16990;49.056;9.240;2022-08-25T08:37:00;98719.22;;;25.79;54.51
30182;BME280;16990;49.056;9.240;2022-08-25T08:39:47;98719.88;;;25.97;53.28
30182;BME280;16990;49.056;9.240;2022-08-25T08:42:47;98720.28;;;26.07;53.17
30182;BME280;16990;49.056;9.240;2022-08-25T08:45:41;98714.09;;;26.31;52.41
30182;BME280;16990;49.056;9.240;2022-08-25T08:48:43;98710.53;;;26.43;51.86
30182;BME280;16990;49.056;9.240;2022-08-25T08:51:38;98710.00;;;26.50;51.39
30182;BME280;16990;49.056;9.240;2022-08-25T08:54:35;98706.25;;;26.55;51.18
30182;BME280;16990;49.056;9.240;2022-08-25T08:57:25;98702.19;;;26.73;50.39
30182;BME280;16990;49.056;9.240;2022-08-25T09:00:14;98699.34;;;26.82;50.09
30182;BME280;16990;49.056;9.240;2022-08-25T09:03:05;98696.59;;;26.94;48.98
30182;BME280;16990;49.056;9.240;2022-08-25T09:05:55;98696.00;;;26.88;49.00
30182;BME280;16990;49.056;9.240;2022-08-25T09:08:42;98691.44;;;27.05;49.43
30182;BME280;16990;49.056;9.240;2022-08-25T09:11:44;98697.94;;;27.25;48.82
30182;BME280;16990;49.056;9.240;2022-08-25T09:14:45;98697.50;;;27.35;47.48
30182;BME280;16990;49.056;9.240;2022-08-25T09:17:46;98690.34;;;27.46;46.74
30182;BME280;16990;49.056;9.240;2022-08-25T09:20:51;98695.94;;;27.62;46.96
30182;BME280;16990;49.056;9.240;2022-08-25T09:23:52;98685.47;;;27.68;46.22
30182;BME280;16990;49.056;9.240;2022-08-25T09:26:51;98675.03;;;27.86;46.77
30182;BME280;16990;49.056;9.240;2022-08-25T09:29:53;98678.63;;;28.02;46.27
30182;BME280;16990;49.056;9.240;2022-08-25T09:32:45;98681.38;;;28.02;45.49
30182;BME280;16990;49.056;9.240;2022-08-25T09:35:35;98668.28;;;28.11;45.60
30182;BME280;16990;49.056;9.240;2022-08-25T09:38:25;98676.63;;;28.15;45.38
30182;BME280;16990;49.056;9.240;2022-08-25T09:41:15;98659.09;;;28.35;44.78
30182;BME280;16990;49.056;9.240;2022-08-25T09:44:03;98667.28;;;28.48;44.12
30182;BME280;16990;49.056;9.240;2022-08-25T09:46:57;98655.66;;;28.54;43.90
30182;BME280;16990;49.056;9.240;2022-08-25T09:49:48;98661.78;;;28.48;44.28
30182;BME280;16990;49.056;9.240;2022-08-25T09:52:37;98665.06;;;28.69;44.05
30182;BME280;16990;49.056;9.240;2022-08-25T09:55:29;98663.78;;;28.82;42.83
30182;BME280;16990;49.056;9.240;2022-08-25T09:58:19;98657.72;;;28.73;43.07
30182;BME280;16990;49.056;9.240;2022-08-25T10:01:14;98664.25;;;28.84;42.48
30182;BME280;16990;49.056;9.240;2022-08-25T10:04:04;98644.63;;;28.86;41.76
30182;BME280;16990;49.056;9.240;2022-08-25T10:06:51;98637.50;;;28.85;41.34
30182;BME280;16990;49.056;9.240;2022-08-25T10:09:40;98637.44;;;28.81;42.21
30182;BME280;16990;49.056;9.240;2022-08-25T10:12:30;98635.81;;;29.12;41.10
30182;BME280;16990;49.056;9.240;2022-08-25T10:15:21;98630.91;;;29.41;40.49
30182;BME280;16990;49.056;9.240;2022-08-25T10:18:20;98627.88;;;29.46;40.28
30182;BME280;16990;49.056;9.240;2022-08-25T10:21:10;98627.16;;;29.68;39.73
30182;BME280;16990;49.056;9.240;2022-08-25T10:23:58;98629.22;;;29.72;39.68
30182;BME280;16990;49.056;9.240;2022-08-25T10:26:53;98617.94;;;29.61;40.09
30182;BME280;16990;49.056;9.240;2022-08-25T10:30:00;98613.38;;;29.68;40.75
30182;BME280;16990;49.056;9.240;2022-08-25T10:33:02;98614.25;;;29.73;39.74
30182;BME280;16990;49.056;9.240;2022-08-25T10:36:00;98615.25;;;29.64;39.85
30182;BME280;16990;49.056;9.240;2022-08-25T10:38:53;98607.00;;;29.64;39.90
30182;BME280;16990;49.056;9.240;2022-08-25T10:41:49;98613.22;;;29.61;39.76
30182;BME280;16990;49.056;9.240;2022-08-25T10:44:47;98609.88;;;29.52;40.50
30182;BME280;16990;49.056;9.240;2022-08-25T10:48:05;98604.25;;;29.64;39.98
30182;BME280;16990;49.056;9.240;2022-08-25T10:51:02;98606.56;;;29.62;40.18
30182;BME280;16990;49.056;9.240;2022-08-25T10:53:57;98608.09;;;29.40;40.14
30182;BME280;16990;49.056;9.240;2022-08-25T10:56:51;98591.78;;;29.12;41.04
30182;BME280;16990;49.056;9.240;2022-08-25T10:59:53;98591.59;;;29.05;41.45
30182;BME280;16990;49.056;9.240;2022-08-25T11:02:55;98589.97;;;29.04;41.71
30182;BME280;16990;49.056;9.240;2022-08-25T11:05:46;98581.91;;;29.11;41.73
30182;BME280;16990;49.056;9.240;2022-08-25T11:08:38;98588.00;;;29.20;41.36
30182;BME280;16990;49.056;9.240;2022-08-25T11:11:30;98585.03;;;28.94;41.01
30182;BME280;16990;49.056;9.240;2022-08-25T11:14:21;98577.94;;;28.93;41.52
30182;BME280;16990;49.056;9.240;2022-08-25T11:17:14;98573.91;;;29.06;41.72
30182;BME280;16990;49.056;9.240;2022-08-25T11:20:04;98565.94;;;29.01;41.15
30182;BME280;16990;49.056;9.240;2022-08-25T11:23:06;98571.03;;;29.38;40.81
30182;BME280;16990;49.056;9.240;2022-08-25T11:25:59;98570.03;;;29.46;39.91
30182;BME280;16990;49.056;9.240;2022-08-25T11:28:51;98563.13;;;29.75;39.93
30182;BME280;16990;49.056;9.240;2022-08-25T11:31:50;98567.72;;;29.67;39.51
30182;BME280;16990;49.056;9.240;2022-08-25T11:34:37;98547.84;;;29.39;39.49
30182;BME280;16990;49.056;9.240;2022-08-25T11:37:26;98548.00;;;29.26;39.75
30182;BME280;16990;49.056;9.240;2022-08-25T11:43:50;98550.13;;;29.33;39.47
30182;BME280;16990;49.056;9.240;2022-08-25T11:46:51;98556.44;;;29.57;38.27
30182;BME280;16990;49.056;9.240;2022-08-25T11:49:51;98545.50;;;29.60;37.52
30182;BME280;16990;49.056;9.240;2022-08-25T11:52:45;98540.66;;;29.54;38.84
30182;BME280;16990;49.056;9.240;2022-08-25T11:55:46;98540.34;;;30.01;37.50
30182;BME280;16990;49.056;9.240;2022-08-25T11:58:47;98543.19;;;29.62;38.22
30182;BME280;16990;49.056;9.240;2022-08-25T12:02:17;98539.81;;;29.92;38.78
30182;BME280;16990;49.056;9.240;2022-08-25T12:09:15;98546.47;;;30.64;37.21
30182;BME280;16990;49.056;9.240;2022-08-25T12:12:27;98543.38;;;30.95;36.71
30182;BME280;16990;49.056;9.240;2022-08-25T12:15:20;98545.31;;;30.91;36.79
30182;BME280;16990;49.056;9.240;2022-08-25T12:18:12;98535.28;;;31.10;36.02
30182;BME280;16990;49.056;9.240;2022-08-25T12:21:10;98528.69;;;31.18;35.96
30182;BME280;16990;49.056;9.240;2022-08-25T12:24:12;98529.28;;;31.34;36.08
30182;BME280;16990;49.056;9.240;2022-08-25T12:27:01;98529.13;;;31.54;35.45
30182;BME280;16990;49.056;9.240;2022-08-25T12:29:54;98539.31;;;31.16;36.06
30182;BME280;16990;49.056;9.240;2022-08-25T12:32:58;98528.13;;;31.05;36.04
30182;BME280;16990;49.056;9.240;2022-08-25T12:35:55;98526.28;;;31.13;36.14
30182;BME280;16990;49.056;9.240;2022-08-25T12:38:44;98521.38;;;31.36;35.42
30182;BME280;16990;49.056;9.240;2022-08-25T12:41:33;98523.88;;;31.42;35.69
30182;BME280;16990;49.056;9.240;2022-08-25T12:44:34;98526.91;;;31.70;35.47
30182;BME280;16990;49.056;9.240;2022-08-25T12:47:28;98518.91;;;31.99;34.21
30182;BME280;16990;49.056;9.240;2022-08-25T12:50:37;98510.91;;;31.90;34.13
30182;BME280;16990;49.056;9.240;2022-08-25T12:53:32;98512.34;;;31.73;34.27
30182;BME280;16990;49.056;9.240;2022-08-25T12:56:25;98511.41;;;31.58;34.23
30182;BME280;16990;49.056;9.240;2022-08-25T12:59:16;98523.88;;;31.45;35.14
30182;BME280;16990;49.056;9.240;2022-08-25T13:02:27;98506.75;;;31.66;35.06
30182;BME280;16990;49.056;9.240;2022-08-25T13:05:49;98512.09;;;31.93;34.04
30182;BME280;16990;49.056;9.240;2022-08-25T13:09:09;98506.22;;;31.94;34.06
30182;BME280;16990;49.056;9.240;2022-08-25T13:12:08;98508.44;;;31.78;34.17
30182;BME280;16990;49.056;9.240;2022-08-25T13:14:58;98503.75;;;31.86;34.53
30182;BME280;16990;49.056;9.240;2022-08-25T13:17:45;98490.44;;;31.98;34.20
30182;BME280;16990;49.056;9.240;2022-08-25T13:20:32;98496.44;;;32.04;34.06
30182;BME280;16990;49.056;9.240;2022-08-25T13:23:25;98501.41;;;31.91;33.94
30182;BME280;16990;49.056;9.240;2022-08-25T13:26:13;98500.88;;;31.75;33.70
30182;BME280;16990;49.056;9.240;2022-08-25T13:29:12;98497.31;;;31.74;34.11
30182;BME280;16990;49.056;9.240;2022-08-25T13:32:01;98489.94;;;31.89;33.78
30182;BME280;16990;49.056;9.240;2022-08-25T13:34:49;98485.25;;;31.93;33.41
30182;BME280;16990;49.056;9.240;2022-08-25T13:37:38;98484.19;;;32.05;33.37
30182;BME280;16990;49.056;9.240;2022-08-25T13:40:28;98475.94;;;32.12;32.70
30182;BME280;16990;49.056;9.240;2022-08-25T13:43:18;98480.22;;;32.03;32.88
30182;BME280;16990;49.056;9.240;2022-08-25T13:46:05;98471.19;;;32.09;32.58
30182;BME280;16990;49.056;9.240;2022-08-25T13:49:01;98473.59;;;32.14;32.69
30182;BME280;16990;49.056;9.240;2022-08-25T13:51:51;98471.59;;;32.11;33.13
30182;BME280;16990;49.056;9.240;2022-08-25T13:54:41;98462.06;;;32.05;33.62
30182;BME280;16990;49.056;9.240;2022-08-25T13:57:30;98459.75;;;32.14;33.30
30182;BME280;16990;49.056;9.240;2022-08-25T14:00:32;98448.06;;;32.39;33.05
30182;BME280;16990;49.056;9.240;2022-08-25T14:03:31;98440.16;;;32.37;32.96
30182;BME280;16990;49.056;9.240;2022-08-25T14:06:21;98452.84;;;32.49;33.02
30182;BME280;16990;49.056;9.240;2022-08-25T14:09:13;98440.34;;;32.70;31.95
30182;BME280;16990;49.056;9.240;2022-08-25T14:12:01;98446.66;;;32.67;32.13
30182;BME280;16990;49.056;9.240;2022-08-25T14:14:59;98440.38;;;32.84;31.76
30182;BME280;16990;49.056;9.240;2022-08-25T14:17:58;98441.59;;;32.94;31.29
30182;BME280;16990;49.056;9.240;2022-08-25T14:20:48;98433.69;;;32.89;31.60
30182;BME280;16990;49.056;9.240;2022-08-25T14:23:37;98443.22;;;32.98;31.58
30182;BME280;16990;49.056;9.240;2022-08-25T14:26:24;98440.44;;;32.95;31.39
30182;BME280;16990;49.056;9.240;2022-08-25T14:29:12;98445.94;;;32.91;31.89
30182;BME280;16990;49.056;9.240;2022-08-25T14:32:00;98438.78;;;32.76;32.33
30182;BME280;16990;49.056;9.240;2022-08-25T14:34:47;98444.53;;;32.49;32.94
30182;BME280;16990;49.056;9.240;2022-08-25T14:37:34;98436.94;;;32.32;33.38
30182;BME280;16990;49.056;9.240;2022-08-25T14:40:21;98436.16;;;32.31;33.14
30182;BME280;16990;49.056;9.240;2022-08-25T14:43:09;98433.25;;;32.10;33.47
30182;BME280;16990;49.056;9.240;2022-08-25T14:45:56;98421.78;;;32.04;33.91
30182;BME280;16990;49.056;9.240;2022-08-25T14:48:46;98421.34;;;32.02;33.94
30182;BME280;16990;49.056;9.240;2022-08-25T14:51:34;98427.91;;;31.87;33.60
30182;BME280;16990;49.056;9.240;2022-08-25T14:54:25;98423.94;;;31.81;33.70
30182;BME280;16990;49.056;9.240;2022-08-25T14:57:12;98419.50;;;31.69;33.75
30182;BME280;16990;49.056;9.240;2022-08-25T14:59:59;98427.00;;;31.68;33.81
30182;BME280;16990;49.056;9.240;2022-08-25T15:02:48;98421.34;;;31.54;33.98
30182;BME280;16990;49.056;9.240;2022-08-25T15:05:37;98417.38;;;31.51;34.70
30182;BME280;16990;49.056;9.240;2022-08-25T15:08:24;98418.88;;;31.42;34.95
30182;BME280;16990;49.056;9.240;2022-08-25T15:11:29;98410.88;;;31.33;34.95
30182;BME280;16990;49.056;9.240;2022-08-25T15:14:18;98409.19;;;31.21;34.97